Current Weather

Union County

Marysville, Ohio (KMRT)

Report from: Sunday, November 27, 2022 2:55 AM EST
Current time: Sunday, November 27, 2022 3:22 AM EST

Nearby weather
Weather history
Weather forecast

Temperature6.0°C (42.8°F)
Wind chill5.0°C (41.1°F)
Dew point3.6°C (38.5°F)
Winds 3 kts (1.5 m/s, 3.5 mph) South (180°)
Visibility10 mi. (16.1 km)
Clouds Ceiling: Broken clouds 10,000 ft. (3,048 m)
Altimeter29.74 in.Hg (1007 mB)
Precipitiation0.02 in. (1 mm)
Relative humidity85 %
Density altitude-760 ft. (-232 m)
Remarks Fully automated report
Automated weather observing station with precipitation discriminator
Flight conditions Visual Meteorological Conditions
Raw dataKMRT 270755Z AUTO 18003KT 10SM BKN100 06/04 A2974 RMK AO2 T00600036 P0002
An error has occurred. This application may no longer respond until reloaded. Reload 🗙